<?xml version="1.0" encoding="UTF-8" standalone="no" ?>
<gpx xmlns="http://www.topografix.com/GPX/1/1" xmlns:xsi="http://www.w3.org/2001/XMLSchema-instance" xsi:schemaLocation="http://www.topografix.com/GPX/1/1 http://www.topografix.com/GPX/1/1/gpx.xsd" version="1.1" creator="VisuGPX - https://www.visugpx.com">
  <metadata>
    <name>E6 V. Boucan Grignols </name>
    <desc><![CDATA[E6 V. Boucan Grignols 148
hub03grbx]]></desc>
  </metadata>
  <trk>
    <name><![CDATA[Toaster Course]]></name>
    <trkseg>
      <trkpt lat="43.782" lon="-1.39801">
        <ele>5</ele>
        <time>2013-04-29T00:00:00Z</time>
      </trkpt>
      <trkpt lat="43.78203" lon="-1.3985">
        <ele>4</ele>
        <time>2013-04-29T00:00:04Z</time>
      </trkpt>
      <trkpt lat="43.78507" lon="-1.39812">
        <ele>4</ele>
        <time>2013-04-29T00:00:45Z</time>
      </trkpt>
      <trkpt lat="43.7851" lon="-1.39807">
        <ele>4</ele>
        <time>2013-04-29T00:00:46Z</time>
      </trkpt>
      <trkpt lat="43.78619" lon="-1.39773">
        <ele>4</ele>
        <time>2013-04-29T00:01:01Z</time>
      </trkpt>
      <trkpt lat="43.78765" lon="-1.39717">
        <ele>5</ele>
        <time>2013-04-29T00:01:23Z</time>
      </trkpt>
      <trkpt lat="43.78818" lon="-1.39672">
        <ele>5</ele>
        <time>2013-04-29T00:01:32Z</time>
      </trkpt>
      <trkpt lat="43.78833" lon="-1.39647">
        <ele>5</ele>
        <time>2013-04-29T00:01:35Z</time>
      </trkpt>
      <trkpt lat="43.78837" lon="-1.3963">
        <ele>5</ele>
        <time>2013-04-29T00:01:36Z</time>
      </trkpt>
      <trkpt lat="43.78848" lon="-1.39628">
        <ele>5</ele>
        <time>2013-04-29T00:01:38Z</time>
      </trkpt>
      <trkpt lat="43.78869" lon="-1.39612">
        <ele>5</ele>
        <time>2013-04-29T00:01:41Z</time>
      </trkpt>
      <trkpt lat="43.78975" lon="-1.39489">
        <ele>5</ele>
        <time>2013-04-29T00:02:00Z</time>
      </trkpt>
      <trkpt lat="43.79218" lon="-1.3932">
        <ele>4</ele>
        <time>2013-04-29T00:02:36Z</time>
      </trkpt>
      <trkpt lat="43.79322" lon="-1.39234">
        <ele>4</ele>
        <time>2013-04-29T00:02:52Z</time>
      </trkpt>
      <trkpt lat="43.79324" lon="-1.39227">
        <ele>4</ele>
        <time>2013-04-29T00:02:53Z</time>
      </trkpt>
      <trkpt lat="43.79338" lon="-1.39215">
        <ele>4</ele>
        <time>2013-04-29T00:02:55Z</time>
      </trkpt>
      <trkpt lat="43.7934" lon="-1.39201">
        <ele>4</ele>
        <time>2013-04-29T00:02:56Z</time>
      </trkpt>
      <trkpt lat="43.79353" lon="-1.39202">
        <ele>4</ele>
        <time>2013-04-29T00:02:58Z</time>
      </trkpt>
      <trkpt lat="43.79381" lon="-1.39185">
        <ele>4</ele>
        <time>2013-04-29T00:03:02Z</time>
      </trkpt>
      <trkpt lat="43.79502" lon="-1.39087">
        <ele>4</ele>
        <time>2013-04-29T00:03:21Z</time>
      </trkpt>
      <trkpt lat="43.79506" lon="-1.39079">
        <ele>4</ele>
        <time>2013-04-29T00:03:22Z</time>
      </trkpt>
      <trkpt lat="43.79581" lon="-1.3902">
        <ele>6</ele>
        <time>2013-04-29T00:03:38Z</time>
      </trkpt>
      <trkpt lat="43.79586" lon="-1.39008">
        <ele>6</ele>
        <time>2013-04-29T00:03:39Z</time>
      </trkpt>
      <trkpt lat="43.79604" lon="-1.39002">
        <ele>6</ele>
        <time>2013-04-29T00:03:42Z</time>
      </trkpt>
      <trkpt lat="43.79642" lon="-1.38966">
        <ele>6</ele>
        <time>2013-04-29T00:03:48Z</time>
      </trkpt>
      <trkpt lat="43.79659" lon="-1.38954">
        <ele>6</ele>
        <time>2013-04-29T00:03:51Z</time>
      </trkpt>
      <trkpt lat="43.79666" lon="-1.38954">
        <ele>6</ele>
        <time>2013-04-29T00:03:52Z</time>
      </trkpt>
      <trkpt lat="43.79806" lon="-1.38841">
        <ele>9</ele>
        <time>2013-04-29T00:04:20Z</time>
      </trkpt>
      <trkpt lat="43.79853" lon="-1.38797">
        <ele>10</ele>
        <time>2013-04-29T00:04:31Z</time>
      </trkpt>
      <trkpt lat="43.79874" lon="-1.38771">
        <ele>10</ele>
        <time>2013-04-29T00:04:36Z</time>
      </trkpt>
      <trkpt lat="43.79877" lon="-1.38756">
        <ele>11</ele>
        <time>2013-04-29T00:04:38Z</time>
      </trkpt>
      <trkpt lat="43.79886" lon="-1.38753">
        <ele>10</ele>
        <time>2013-04-29T00:04:39Z</time>
      </trkpt>
      <trkpt lat="43.79893" lon="-1.38756">
        <ele>10</ele>
        <time>2013-04-29T00:04:40Z</time>
      </trkpt>
      <trkpt lat="43.79912" lon="-1.38736">
        <ele>10</ele>
        <time>2013-04-29T00:04:43Z</time>
      </trkpt>
      <trkpt lat="43.7992" lon="-1.38734">
        <ele>10</ele>
        <time>2013-04-29T00:04:45Z</time>
      </trkpt>
      <trkpt lat="43.80308" lon="-1.38342">
        <ele>6</ele>
        <time>2013-04-29T00:05:49Z</time>
      </trkpt>
      <trkpt lat="43.8044" lon="-1.38231">
        <ele>5</ele>
        <time>2013-04-29T00:06:09Z</time>
      </trkpt>
      <trkpt lat="43.80828" lon="-1.37924">
        <ele>4</ele>
        <time>2013-04-29T00:07:09Z</time>
      </trkpt>
      <trkpt lat="43.8088" lon="-1.37898">
        <ele>5</ele>
        <time>2013-04-29T00:07:20Z</time>
      </trkpt>
      <trkpt lat="43.81021" lon="-1.3786">
        <ele>9</ele>
        <time>2013-04-29T00:07:48Z</time>
      </trkpt>
      <trkpt lat="43.81102" lon="-1.37836">
        <ele>8</ele>
        <time>2013-04-29T00:07:59Z</time>
      </trkpt>
      <trkpt lat="43.8111" lon="-1.37829">
        <ele>8</ele>
        <time>2013-04-29T00:08:00Z</time>
      </trkpt>
      <trkpt lat="43.81176" lon="-1.37831">
        <ele>8</ele>
        <time>2013-04-29T00:08:09Z</time>
      </trkpt>
      <trkpt lat="43.81227" lon="-1.37624">
        <ele>9</ele>
        <time>2013-04-29T00:08:32Z</time>
      </trkpt>
      <trkpt lat="43.81228" lon="-1.37537">
        <ele>9</ele>
        <time>2013-04-29T00:08:41Z</time>
      </trkpt>
      <trkpt lat="43.81231" lon="-1.37518">
        <ele>9</ele>
        <time>2013-04-29T00:08:42Z</time>
      </trkpt>
      <trkpt lat="43.81228" lon="-1.37503">
        <ele>9</ele>
        <time>2013-04-29T00:08:44Z</time>
      </trkpt>
      <trkpt lat="43.81152" lon="-1.37444">
        <ele>9</ele>
        <time>2013-04-29T00:08:56Z</time>
      </trkpt>
      <trkpt lat="43.81135" lon="-1.37426">
        <ele>9</ele>
        <time>2013-04-29T00:08:58Z</time>
      </trkpt>
      <trkpt lat="43.81041" lon="-1.37308">
        <ele>9</ele>
        <time>2013-04-29T00:09:15Z</time>
      </trkpt>
      <trkpt lat="43.80986" lon="-1.37265">
        <ele>9</ele>
        <time>2013-04-29T00:09:24Z</time>
      </trkpt>
      <trkpt lat="43.80777" lon="-1.37123">
        <ele>10</ele>
        <time>2013-04-29T00:09:57Z</time>
      </trkpt>
      <trkpt lat="43.80622" lon="-1.3698">
        <ele>9</ele>
        <time>2013-04-29T00:10:22Z</time>
      </trkpt>
      <trkpt lat="43.80614" lon="-1.36978">
        <ele>9</ele>
        <time>2013-04-29T00:10:23Z</time>
      </trkpt>
      <trkpt lat="43.80581" lon="-1.36953">
        <ele>9</ele>
        <time>2013-04-29T00:10:29Z</time>
      </trkpt>
      <trkpt lat="43.80565" lon="-1.36922">
        <ele>9</ele>
        <time>2013-04-29T00:10:33Z</time>
      </trkpt>
      <trkpt lat="43.80516" lon="-1.36746">
        <ele>10</ele>
        <time>2013-04-29T00:10:53Z</time>
      </trkpt>
      <trkpt lat="43.80477" lon="-1.36588">
        <ele>12</ele>
        <time>2013-04-29T00:11:14Z</time>
      </trkpt>
      <trkpt lat="43.8046" lon="-1.36538">
        <ele>12</ele>
        <time>2013-04-29T00:11:20Z</time>
      </trkpt>
      <trkpt lat="43.80289" lon="-1.36145">
        <ele>17</ele>
        <time>2013-04-29T00:12:15Z</time>
      </trkpt>
      <trkpt lat="43.80073" lon="-1.35792">
        <ele>32</ele>
        <time>2013-04-29T00:13:36Z</time>
      </trkpt>
      <trkpt lat="43.79918" lon="-1.35407">
        <ele>38</ele>
        <time>2013-04-29T00:14:33Z</time>
      </trkpt>
      <trkpt lat="43.79864" lon="-1.35198">
        <ele>27</ele>
        <time>2013-04-29T00:14:54Z</time>
      </trkpt>
      <trkpt lat="43.79864" lon="-1.35197">
        <ele>26</ele>
        <time>2013-04-29T00:14:54Z</time>
      </trkpt>
      <trkpt lat="43.79781" lon="-1.34865">
        <ele>22</ele>
        <time>2013-04-29T00:15:28Z</time>
      </trkpt>
      <trkpt lat="43.79736" lon="-1.34533">
        <ele>24</ele>
        <time>2013-04-29T00:16:05Z</time>
      </trkpt>
      <trkpt lat="43.79725" lon="-1.34472">
        <ele>24</ele>
        <time>2013-04-29T00:16:12Z</time>
      </trkpt>
      <trkpt lat="43.79512" lon="-1.33573">
        <ele>25</ele>
        <time>2013-04-29T00:17:45Z</time>
      </trkpt>
      <trkpt lat="43.79441" lon="-1.32843">
        <ele>15</ele>
        <time>2013-04-29T00:18:56Z</time>
      </trkpt>
      <trkpt lat="43.79451" lon="-1.3276">
        <ele>15</ele>
        <time>2013-04-29T00:19:05Z</time>
      </trkpt>
      <trkpt lat="43.79573" lon="-1.3235">
        <ele>18</ele>
        <time>2013-04-29T00:19:54Z</time>
      </trkpt>
      <trkpt lat="43.7958" lon="-1.32302">
        <ele>18</ele>
        <time>2013-04-29T00:19:59Z</time>
      </trkpt>
      <trkpt lat="43.79587" lon="-1.32208">
        <ele>18</ele>
        <time>2013-04-29T00:20:08Z</time>
      </trkpt>
      <trkpt lat="43.79593" lon="-1.32178">
        <ele>18</ele>
        <time>2013-04-29T00:20:11Z</time>
      </trkpt>
      <trkpt lat="43.79606" lon="-1.32143">
        <ele>18</ele>
        <time>2013-04-29T00:20:16Z</time>
      </trkpt>
      <trkpt lat="43.79692" lon="-1.31968">
        <ele>20</ele>
        <time>2013-04-29T00:20:40Z</time>
      </trkpt>
      <trkpt lat="43.79714" lon="-1.31906">
        <ele>20</ele>
        <time>2013-04-29T00:20:48Z</time>
      </trkpt>
      <trkpt lat="43.7987" lon="-1.31091">
        <ele>27</ele>
        <time>2013-04-29T00:22:25Z</time>
      </trkpt>
      <trkpt lat="43.79955" lon="-1.30693">
        <ele>22</ele>
        <time>2013-04-29T00:23:05Z</time>
      </trkpt>
      <trkpt lat="43.79962" lon="-1.30624">
        <ele>22</ele>
        <time>2013-04-29T00:23:11Z</time>
      </trkpt>
      <trkpt lat="43.79951" lon="-1.30455">
        <ele>22</ele>
        <time>2013-04-29T00:23:28Z</time>
      </trkpt>
      <trkpt lat="43.79939" lon="-1.30379">
        <ele>20</ele>
        <time>2013-04-29T00:23:35Z</time>
      </trkpt>
      <trkpt lat="43.79908" lon="-1.30273">
        <ele>19</ele>
        <time>2013-04-29T00:23:46Z</time>
      </trkpt>
      <trkpt lat="43.79904" lon="-1.30271">
        <ele>19</ele>
        <time>2013-04-29T00:23:47Z</time>
      </trkpt>
      <trkpt lat="43.79902" lon="-1.30262">
        <ele>19</ele>
        <time>2013-04-29T00:23:48Z</time>
      </trkpt>
      <trkpt lat="43.79906" lon="-1.30258">
        <ele>19</ele>
        <time>2013-04-29T00:23:49Z</time>
      </trkpt>
      <trkpt lat="43.79912" lon="-1.30261">
        <ele>19</ele>
        <time>2013-04-29T00:23:50Z</time>
      </trkpt>
      <trkpt lat="43.79924" lon="-1.30249">
        <ele>19</ele>
        <time>2013-04-29T00:23:53Z</time>
      </trkpt>
      <trkpt lat="43.79961" lon="-1.30199">
        <ele>20</ele>
        <time>2013-04-29T00:24:01Z</time>
      </trkpt>
      <trkpt lat="43.79989" lon="-1.30133">
        <ele>21</ele>
        <time>2013-04-29T00:24:10Z</time>
      </trkpt>
      <trkpt lat="43.803" lon="-1.29562">
        <ele>25</ele>
        <time>2013-04-29T00:25:29Z</time>
      </trkpt>
      <trkpt lat="43.8041" lon="-1.29407">
        <ele>27</ele>
        <time>2013-04-29T00:25:55Z</time>
      </trkpt>
      <trkpt lat="43.80415" lon="-1.29246">
        <ele>25</ele>
        <time>2013-04-29T00:26:10Z</time>
      </trkpt>
      <trkpt lat="43.80419" lon="-1.2922">
        <ele>25</ele>
        <time>2013-04-29T00:26:13Z</time>
      </trkpt>
      <trkpt lat="43.80429" lon="-1.29197">
        <ele>25</ele>
        <time>2013-04-29T00:26:16Z</time>
      </trkpt>
      <trkpt lat="43.8124" lon="-1.27789">
        <ele>36</ele>
        <time>2013-04-29T00:29:35Z</time>
      </trkpt>
      <trkpt lat="43.8152" lon="-1.2726">
        <ele>35</ele>
        <time>2013-04-29T00:30:39Z</time>
      </trkpt>
      <trkpt lat="43.8152" lon="-1.2726">
        <ele>35</ele>
        <time>2013-04-29T00:30:40Z</time>
      </trkpt>
      <trkpt lat="43.82262" lon="-1.25855">
        <ele>36</ele>
        <time>2013-04-29T00:33:30Z</time>
      </trkpt>
      <trkpt lat="43.82281" lon="-1.25802">
        <ele>36</ele>
        <time>2013-04-29T00:33:38Z</time>
      </trkpt>
      <trkpt lat="43.82319" lon="-1.25741">
        <ele>38</ele>
        <time>2013-04-29T00:33:48Z</time>
      </trkpt>
      <trkpt lat="43.82503" lon="-1.25309">
        <ele>40</ele>
        <time>2013-04-29T00:34:41Z</time>
      </trkpt>
      <trkpt lat="43.82976" lon="-1.2447">
        <ele>47</ele>
        <time>2013-04-29T00:36:41Z</time>
      </trkpt>
      <trkpt lat="43.83353" lon="-1.23817">
        <ele>53</ele>
        <time>2013-04-29T00:38:16Z</time>
      </trkpt>
      <trkpt lat="43.83366" lon="-1.23776">
        <ele>53</ele>
        <time>2013-04-29T00:38:21Z</time>
      </trkpt>
      <trkpt lat="43.83877" lon="-1.22869">
        <ele>59</ele>
        <time>2013-04-29T00:40:25Z</time>
      </trkpt>
      <trkpt lat="43.83924" lon="-1.22729">
        <ele>58</ele>
        <time>2013-04-29T00:40:40Z</time>
      </trkpt>
      <trkpt lat="43.83996" lon="-1.22492">
        <ele>59</ele>
        <time>2013-04-29T00:41:07Z</time>
      </trkpt>
      <trkpt lat="43.84016" lon="-1.22407">
        <ele>60</ele>
        <time>2013-04-29T00:41:20Z</time>
      </trkpt>
      <trkpt lat="43.84087" lon="-1.22188">
        <ele>65</ele>
        <time>2013-04-29T00:41:54Z</time>
      </trkpt>
      <trkpt lat="43.84605" lon="-1.20023">
        <ele>66</ele>
        <time>2013-04-29T00:45:36Z</time>
      </trkpt>
      <trkpt lat="43.84618" lon="-1.19962">
        <ele>66</ele>
        <time>2013-04-29T00:45:44Z</time>
      </trkpt>
      <trkpt lat="43.84658" lon="-1.19698">
        <ele>71</ele>
        <time>2013-04-29T00:46:20Z</time>
      </trkpt>
      <trkpt lat="43.84686" lon="-1.19575">
        <ele>73</ele>
        <time>2013-04-29T00:46:37Z</time>
      </trkpt>
      <trkpt lat="43.84877" lon="-1.19141">
        <ele>70</ele>
        <time>2013-04-29T00:47:26Z</time>
      </trkpt>
      <trkpt lat="43.85587" lon="-1.17577">
        <ele>82</ele>
        <time>2013-04-29T00:50:53Z</time>
      </trkpt>
      <trkpt lat="43.85557" lon="-1.17522">
        <ele>80</ele>
        <time>2013-04-29T00:51:00Z</time>
      </trkpt>
      <trkpt lat="43.85523" lon="-1.17483">
        <ele>80</ele>
        <time>2013-04-29T00:51:05Z</time>
      </trkpt>
      <trkpt lat="43.85523" lon="-1.17483">
        <ele>80</ele>
        <time>2013-04-29T00:51:06Z</time>
      </trkpt>
      <trkpt lat="43.85557" lon="-1.17522">
        <ele>80</ele>
        <time>2013-04-29T00:51:15Z</time>
      </trkpt>
      <trkpt lat="43.85587" lon="-1.17577">
        <ele>82</ele>
        <time>2013-04-29T00:51:24Z</time>
      </trkpt>
      <trkpt lat="43.86161" lon="-1.16333">
        <ele>69</ele>
        <time>2013-04-29T00:53:46Z</time>
      </trkpt>
      <trkpt lat="43.86171" lon="-1.16306">
        <ele>68</ele>
        <time>2013-04-29T00:53:49Z</time>
      </trkpt>
      <trkpt lat="43.86165" lon="-1.16282">
        <ele>68</ele>
        <time>2013-04-29T00:53:51Z</time>
      </trkpt>
      <trkpt lat="43.86236" lon="-1.16227">
        <ele>66</ele>
        <time>2013-04-29T00:54:02Z</time>
      </trkpt>
      <trkpt lat="43.86328" lon="-1.16148">
        <ele>66</ele>
        <time>2013-04-29T00:54:17Z</time>
      </trkpt>
      <trkpt lat="43.86468" lon="-1.16044">
        <ele>70</ele>
        <time>2013-04-29T00:54:48Z</time>
      </trkpt>
      <trkpt lat="43.86546" lon="-1.1597">
        <ele>70</ele>
        <time>2013-04-29T00:55:00Z</time>
      </trkpt>
      <trkpt lat="43.87298" lon="-1.15428">
        <ele>65</ele>
        <time>2013-04-29T00:56:53Z</time>
      </trkpt>
      <trkpt lat="43.87849" lon="-1.15033">
        <ele>60</ele>
        <time>2013-04-29T00:58:16Z</time>
      </trkpt>
      <trkpt lat="43.87866" lon="-1.15017">
        <ele>59</ele>
        <time>2013-04-29T00:58:19Z</time>
      </trkpt>
      <trkpt lat="43.87872" lon="-1.14997">
        <ele>59</ele>
        <time>2013-04-29T00:58:21Z</time>
      </trkpt>
      <trkpt lat="43.87877" lon="-1.14986">
        <ele>58</ele>
        <time>2013-04-29T00:58:22Z</time>
      </trkpt>
      <trkpt lat="43.87914" lon="-1.14987">
        <ele>57</ele>
        <time>2013-04-29T00:58:27Z</time>
      </trkpt>
      <trkpt lat="43.88255" lon="-1.14742">
        <ele>48</ele>
        <time>2013-04-29T00:59:19Z</time>
      </trkpt>
      <trkpt lat="43.88497" lon="-1.14565">
        <ele>40</ele>
        <time>2013-04-29T00:59:55Z</time>
      </trkpt>
      <trkpt lat="43.88692" lon="-1.14424">
        <ele>52</ele>
        <time>2013-04-29T01:00:53Z</time>
      </trkpt>
      <trkpt lat="43.88735" lon="-1.14388">
        <ele>52</ele>
        <time>2013-04-29T01:01:02Z</time>
      </trkpt>
      <trkpt lat="43.89034" lon="-1.14037">
        <ele>58</ele>
        <time>2013-04-29T01:02:07Z</time>
      </trkpt>
      <trkpt lat="43.89034" lon="-1.14037">
        <ele>58</ele>
        <time>2013-04-29T01:02:08Z</time>
      </trkpt>
      <trkpt lat="43.89113" lon="-1.13943">
        <ele>62</ele>
        <time>2013-04-29T01:02:31Z</time>
      </trkpt>
      <trkpt lat="43.89115" lon="-1.13924">
        <ele>62</ele>
        <time>2013-04-29T01:02:33Z</time>
      </trkpt>
      <trkpt lat="43.89126" lon="-1.13925">
        <ele>62</ele>
        <time>2013-04-29T01:02:35Z</time>
      </trkpt>
      <trkpt lat="43.89151" lon="-1.13898">
        <ele>62</ele>
        <time>2013-04-29T01:02:39Z</time>
      </trkpt>
      <trkpt lat="43.89525" lon="-1.13459">
        <ele>64</ele>
        <time>2013-04-29T01:03:49Z</time>
      </trkpt>
      <trkpt lat="43.89608" lon="-1.13385">
        <ele>64</ele>
        <time>2013-04-29T01:04:02Z</time>
      </trkpt>
      <trkpt lat="43.89608" lon="-1.13385">
        <ele>64</ele>
        <time>2013-04-29T01:04:03Z</time>
      </trkpt>
      <trkpt lat="43.89649" lon="-1.1335">
        <ele>63</ele>
        <time>2013-04-29T01:04:10Z</time>
      </trkpt>
      <trkpt lat="43.90024" lon="-1.13072">
        <ele>62</ele>
        <time>2013-04-29T01:05:06Z</time>
      </trkpt>
      <trkpt lat="43.90048" lon="-1.13065">
        <ele>62</ele>
        <time>2013-04-29T01:05:10Z</time>
      </trkpt>
      <trkpt lat="43.90071" lon="-1.13064">
        <ele>62</ele>
        <time>2013-04-29T01:05:13Z</time>
      </trkpt>
      <trkpt lat="43.9015" lon="-1.13096">
        <ele>62</ele>
        <time>2013-04-29T01:05:24Z</time>
      </trkpt>
      <trkpt lat="43.90188" lon="-1.13097">
        <ele>61</ele>
        <time>2013-04-29T01:05:29Z</time>
      </trkpt>
      <trkpt lat="43.90231" lon="-1.13075">
        <ele>60</ele>
        <time>2013-04-29T01:05:35Z</time>
      </trkpt>
      <trkpt lat="43.9029" lon="-1.13029">
        <ele>60</ele>
        <time>2013-04-29T01:05:44Z</time>
      </trkpt>
      <trkpt lat="43.90326" lon="-1.1299">
        <ele>60</ele>
        <time>2013-04-29T01:05:50Z</time>
      </trkpt>
      <trkpt lat="43.90326" lon="-1.1299">
        <ele>60</ele>
        <time>2013-04-29T01:05:51Z</time>
      </trkpt>
      <trkpt lat="43.90346" lon="-1.12943">
        <ele>60</ele>
        <time>2013-04-29T01:05:57Z</time>
      </trkpt>
      <trkpt lat="43.90368" lon="-1.12839">
        <ele>61</ele>
        <time>2013-04-29T01:06:09Z</time>
      </trkpt>
      <trkpt lat="43.90381" lon="-1.1281">
        <ele>61</ele>
        <time>2013-04-29T01:06:13Z</time>
      </trkpt>
      <trkpt lat="43.90404" lon="-1.12783">
        <ele>61</ele>
        <time>2013-04-29T01:06:17Z</time>
      </trkpt>
      <trkpt lat="43.91124" lon="-1.12235">
        <ele>64</ele>
        <time>2013-04-29T01:08:13Z</time>
      </trkpt>
      <trkpt lat="43.91124" lon="-1.12235">
        <ele>64</ele>
        <time>2013-04-29T01:08:14Z</time>
      </trkpt>
      <trkpt lat="43.9169" lon="-1.11806">
        <ele>67</ele>
        <time>2013-04-29T01:09:48Z</time>
      </trkpt>
      <trkpt lat="43.91721" lon="-1.11794">
        <ele>67</ele>
        <time>2013-04-29T01:09:53Z</time>
      </trkpt>
      <trkpt lat="43.9175" lon="-1.11793">
        <ele>67</ele>
        <time>2013-04-29T01:09:57Z</time>
      </trkpt>
      <trkpt lat="43.91831" lon="-1.11824">
        <ele>68</ele>
        <time>2013-04-29T01:10:09Z</time>
      </trkpt>
      <trkpt lat="43.91865" lon="-1.11824">
        <ele>68</ele>
        <time>2013-04-29T01:10:15Z</time>
      </trkpt>
      <trkpt lat="43.91905" lon="-1.11803">
        <ele>68</ele>
        <time>2013-04-29T01:10:22Z</time>
      </trkpt>
      <trkpt lat="43.91991" lon="-1.11725">
        <ele>70</ele>
        <time>2013-04-29T01:10:38Z</time>
      </trkpt>
      <trkpt lat="43.92012" lon="-1.11692">
        <ele>70</ele>
        <time>2013-04-29T01:10:43Z</time>
      </trkpt>
      <trkpt lat="43.92024" lon="-1.11659">
        <ele>70</ele>
        <time>2013-04-29T01:10:48Z</time>
      </trkpt>
      <trkpt lat="43.92036" lon="-1.11524">
        <ele>72</ele>
        <time>2013-04-29T01:11:04Z</time>
      </trkpt>
      <trkpt lat="43.92045" lon="-1.11492">
        <ele>72</ele>
        <time>2013-04-29T01:11:07Z</time>
      </trkpt>
      <trkpt lat="43.92059" lon="-1.11466">
        <ele>72</ele>
        <time>2013-04-29T01:11:11Z</time>
      </trkpt>
      <trkpt lat="43.93468" lon="-1.09539">
        <ele>76</ele>
        <time>2013-04-29T01:15:44Z</time>
      </trkpt>
      <trkpt lat="43.93489" lon="-1.09515">
        <ele>76</ele>
        <time>2013-04-29T01:15:48Z</time>
      </trkpt>
      <trkpt lat="43.93515" lon="-1.095">
        <ele>76</ele>
        <time>2013-04-29T01:15:52Z</time>
      </trkpt>
      <trkpt lat="43.93751" lon="-1.09411">
        <ele>78</ele>
        <time>2013-04-29T01:16:29Z</time>
      </trkpt>
      <trkpt lat="43.93795" lon="-1.0939">
        <ele>77</ele>
        <time>2013-04-29T01:16:35Z</time>
      </trkpt>
      <trkpt lat="43.93845" lon="-1.09356">
        <ele>76</ele>
        <time>2013-04-29T01:16:43Z</time>
      </trkpt>
      <trkpt lat="43.93899" lon="-1.09295">
        <ele>74</ele>
        <time>2013-04-29T01:16:52Z</time>
      </trkpt>
      <trkpt lat="43.93937" lon="-1.09233">
        <ele>74</ele>
        <time>2013-04-29T01:17:00Z</time>
      </trkpt>
      <trkpt lat="43.93973" lon="-1.09147">
        <ele>77</ele>
        <time>2013-04-29T01:17:17Z</time>
      </trkpt>
      <trkpt lat="43.93993" lon="-1.09063">
        <ele>80</ele>
        <time>2013-04-29T01:17:32Z</time>
      </trkpt>
      <trkpt lat="43.94044" lon="-1.08784">
        <ele>78</ele>
        <time>2013-04-29T01:18:00Z</time>
      </trkpt>
      <trkpt lat="43.94054" lon="-1.08751">
        <ele>78</ele>
        <time>2013-04-29T01:18:04Z</time>
      </trkpt>
      <trkpt lat="43.94063" lon="-1.08728">
        <ele>78</ele>
        <time>2013-04-29T01:18:06Z</time>
      </trkpt>
      <trkpt lat="43.94084" lon="-1.08696">
        <ele>78</ele>
        <time>2013-04-29T01:18:11Z</time>
      </trkpt>
      <trkpt lat="43.94173" lon="-1.08575">
        <ele>79</ele>
        <time>2013-04-29T01:18:29Z</time>
      </trkpt>
      <trkpt lat="43.94207" lon="-1.08545">
        <ele>78</ele>
        <time>2013-04-29T01:18:35Z</time>
      </trkpt>
      <trkpt lat="43.94241" lon="-1.08535">
        <ele>78</ele>
        <time>2013-04-29T01:18:39Z</time>
      </trkpt>
      <trkpt lat="43.94267" lon="-1.08537">
        <ele>78</ele>
        <time>2013-04-29T01:18:43Z</time>
      </trkpt>
      <trkpt lat="43.94351" lon="-1.08573">
        <ele>78</ele>
        <time>2013-04-29T01:18:54Z</time>
      </trkpt>
      <trkpt lat="43.94375" lon="-1.08574">
        <ele>78</ele>
        <time>2013-04-29T01:18:58Z</time>
      </trkpt>
      <trkpt lat="43.94399" lon="-1.08567">
        <ele>78</ele>
        <time>2013-04-29T01:19:02Z</time>
      </trkpt>
      <trkpt lat="43.94434" lon="-1.08539">
        <ele>79</ele>
        <time>2013-04-29T01:19:10Z</time>
      </trkpt>
      <trkpt lat="43.94453" lon="-1.08511">
        <ele>80</ele>
        <time>2013-04-29T01:19:15Z</time>
      </trkpt>
      <trkpt lat="43.94481" lon="-1.08427">
        <ele>80</ele>
        <time>2013-04-29T01:19:24Z</time>
      </trkpt>
      <trkpt lat="43.94428" lon="-1.08393">
        <ele>80</ele>
        <time>2013-04-29T01:19:31Z</time>
      </trkpt>
      <trkpt lat="43.94404" lon="-1.08373">
        <ele>80</ele>
        <time>2013-04-29T01:19:35Z</time>
      </trkpt>
      <trkpt lat="43.94289" lon="-1.08223">
        <ele>81</ele>
        <time>2013-04-29T01:19:59Z</time>
      </trkpt>
      <trkpt lat="43.94272" lon="-1.0821">
        <ele>81</ele>
        <time>2013-04-29T01:20:01Z</time>
      </trkpt>
      <trkpt lat="43.94244" lon="-1.08199">
        <ele>81</ele>
        <time>2013-04-29T01:20:05Z</time>
      </trkpt>
      <trkpt lat="43.94204" lon="-1.082">
        <ele>81</ele>
        <time>2013-04-29T01:20:10Z</time>
      </trkpt>
      <trkpt lat="43.94206" lon="-1.08155">
        <ele>81</ele>
        <time>2013-04-29T01:20:15Z</time>
      </trkpt>
      <trkpt lat="43.94221" lon="-1.08107">
        <ele>81</ele>
        <time>2013-04-29T01:20:21Z</time>
      </trkpt>
      <trkpt lat="43.94236" lon="-1.08081">
        <ele>81</ele>
        <time>2013-04-29T01:20:25Z</time>
      </trkpt>
      <trkpt lat="43.9427" lon="-1.0805">
        <ele>82</ele>
        <time>2013-04-29T01:20:31Z</time>
      </trkpt>
      <trkpt lat="43.94294" lon="-1.0804">
        <ele>81</ele>
        <time>2013-04-29T01:20:34Z</time>
      </trkpt>
      <trkpt lat="43.94315" lon="-1.08038">
        <ele>81</ele>
        <time>2013-04-29T01:20:37Z</time>
      </trkpt>
      <trkpt lat="43.94409" lon="-1.08065">
        <ele>81</ele>
        <time>2013-04-29T01:20:50Z</time>
      </trkpt>
      <trkpt lat="43.94447" lon="-1.08055">
        <ele>81</ele>
        <time>2013-04-29T01:20:55Z</time>
      </trkpt>
      <trkpt lat="43.94474" lon="-1.08035">
        <ele>81</ele>
        <time>2013-04-29T01:20:59Z</time>
      </trkpt>
      <trkpt lat="43.95321" lon="-1.0688">
        <ele>81</ele>
        <time>2013-04-29T01:23:38Z</time>
      </trkpt>
      <trkpt lat="43.95383" lon="-1.06793">
        <ele>81</ele>
        <time>2013-04-29T01:23:52Z</time>
      </trkpt>
      <trkpt lat="43.95447" lon="-1.06692">
        <ele>83</ele>
        <time>2013-04-29T01:24:07Z</time>
      </trkpt>
      <trkpt lat="43.95472" lon="-1.06664">
        <ele>83</ele>
        <time>2013-04-29T01:24:12Z</time>
      </trkpt>
      <trkpt lat="43.95578" lon="-1.0657">
        <ele>84</ele>
        <time>2013-04-29T01:24:31Z</time>
      </trkpt>
      <trkpt lat="43.95918" lon="-1.06107">
        <ele>87</ele>
        <time>2013-04-29T01:25:42Z</time>
      </trkpt>
      <trkpt lat="43.95959" lon="-1.06058">
        <ele>85</ele>
        <time>2013-04-29T01:25:49Z</time>
      </trkpt>
      <trkpt lat="43.96" lon="-1.06018">
        <ele>84</ele>
        <time>2013-04-29T01:25:55Z</time>
      </trkpt>
      <trkpt lat="43.96072" lon="-1.05969">
        <ele>84</ele>
        <time>2013-04-29T01:26:06Z</time>
      </trkpt>
      <trkpt lat="43.96247" lon="-1.05869">
        <ele>84</ele>
        <time>2013-04-29T01:26:31Z</time>
      </trkpt>
      <trkpt lat="43.96369" lon="-1.05812">
        <ele>86</ele>
        <time>2013-04-29T01:26:53Z</time>
      </trkpt>
      <trkpt lat="43.96449" lon="-1.05787">
        <ele>85</ele>
        <time>2013-04-29T01:27:04Z</time>
      </trkpt>
      <trkpt lat="43.96849" lon="-1.05684">
        <ele>84</ele>
        <time>2013-04-29T01:27:59Z</time>
      </trkpt>
      <trkpt lat="43.96843" lon="-1.0565">
        <ele>84</ele>
        <time>2013-04-29T01:28:02Z</time>
      </trkpt>
      <trkpt lat="43.97503" lon="-1.05392">
        <ele>91</ele>
        <time>2013-04-29T01:29:50Z</time>
      </trkpt>
      <trkpt lat="43.98287" lon="-1.04679">
        <ele>88</ele>
        <time>2013-04-29T01:31:56Z</time>
      </trkpt>
      <trkpt lat="43.98479" lon="-1.04113">
        <ele>87</ele>
        <time>2013-04-29T01:32:56Z</time>
      </trkpt>
      <trkpt lat="43.98818" lon="-1.03632">
        <ele>86</ele>
        <time>2013-04-29T01:34:01Z</time>
      </trkpt>
      <trkpt lat="43.9875" lon="-1.03271">
        <ele>88</ele>
        <time>2013-04-29T01:34:41Z</time>
      </trkpt>
      <trkpt lat="43.98862" lon="-1.03031">
        <ele>90</ele>
        <time>2013-04-29T01:35:13Z</time>
      </trkpt>
      <trkpt lat="43.99084" lon="-1.01855">
        <ele>90</ele>
        <time>2013-04-29T01:37:10Z</time>
      </trkpt>
      <trkpt lat="43.99059" lon="-1.01031">
        <ele>88</ele>
        <time>2013-04-29T01:38:30Z</time>
      </trkpt>
      <trkpt lat="44.00214" lon="-0.97109">
        <ele>85</ele>
        <time>2013-04-29T01:45:17Z</time>
      </trkpt>
      <trkpt lat="44.01257" lon="-0.94491">
        <ele>78</ele>
        <time>2013-04-29T01:50:04Z</time>
      </trkpt>
      <trkpt lat="44.01243" lon="-0.94484">
        <ele>77</ele>
        <time>2013-04-29T01:50:06Z</time>
      </trkpt>
      <trkpt lat="44.01293" lon="-0.94291">
        <ele>76</ele>
        <time>2013-04-29T01:50:26Z</time>
      </trkpt>
      <trkpt lat="44.01301" lon="-0.94255">
        <ele>75</ele>
        <time>2013-04-29T01:50:30Z</time>
      </trkpt>
      <trkpt lat="44.01305" lon="-0.94213">
        <ele>75</ele>
        <time>2013-04-29T01:50:34Z</time>
      </trkpt>
      <trkpt lat="44.01274" lon="-0.93902">
        <ele>75</ele>
        <time>2013-04-29T01:51:04Z</time>
      </trkpt>
      <trkpt lat="44.01216" lon="-0.93443">
        <ele>73</ele>
        <time>2013-04-29T01:51:49Z</time>
      </trkpt>
      <trkpt lat="44.01165" lon="-0.92998">
        <ele>71</ele>
        <time>2013-04-29T01:52:32Z</time>
      </trkpt>
      <trkpt lat="44.01163" lon="-0.92937">
        <ele>70</ele>
        <time>2013-04-29T01:52:38Z</time>
      </trkpt>
      <trkpt lat="44.01171" lon="-0.92904">
        <ele>70</ele>
        <time>2013-04-29T01:52:41Z</time>
      </trkpt>
      <trkpt lat="44.01179" lon="-0.92893">
        <ele>70</ele>
        <time>2013-04-29T01:52:43Z</time>
      </trkpt>
      <trkpt lat="44.01263" lon="-0.92852">
        <ele>70</ele>
        <time>2013-04-29T01:52:55Z</time>
      </trkpt>
      <trkpt lat="44.01258" lon="-0.92761">
        <ele>69</ele>
        <time>2013-04-29T01:53:03Z</time>
      </trkpt>
      <trkpt lat="44.01273" lon="-0.92754">
        <ele>68</ele>
        <time>2013-04-29T01:53:05Z</time>
      </trkpt>
      <trkpt lat="44.0129" lon="-0.92737">
        <ele>68</ele>
        <time>2013-04-29T01:53:08Z</time>
      </trkpt>
      <trkpt lat="44.01402" lon="-0.92707">
        <ele>67</ele>
        <time>2013-04-29T01:53:23Z</time>
      </trkpt>
      <trkpt lat="44.01562" lon="-0.92634">
        <ele>69</ele>
        <time>2013-04-29T01:53:51Z</time>
      </trkpt>
      <trkpt lat="44.01606" lon="-0.92615">
        <ele>69</ele>
        <time>2013-04-29T01:53:57Z</time>
      </trkpt>
      <trkpt lat="44.0165" lon="-0.92583">
        <ele>69</ele>
        <time>2013-04-29T01:54:04Z</time>
      </trkpt>
      <trkpt lat="44.01805" lon="-0.92412">
        <ele>72</ele>
        <time>2013-04-29T01:54:37Z</time>
      </trkpt>
      <trkpt lat="44.01934" lon="-0.92356">
        <ele>76</ele>
        <time>2013-04-29T01:55:05Z</time>
      </trkpt>
      <trkpt lat="44.01958" lon="-0.92355">
        <ele>76</ele>
        <time>2013-04-29T01:55:08Z</time>
      </trkpt>
      <trkpt lat="44.02" lon="-0.9237">
        <ele>76</ele>
        <time>2013-04-29T01:55:14Z</time>
      </trkpt>
      <trkpt lat="44.02223" lon="-0.9249">
        <ele>76</ele>
        <time>2013-04-29T01:55:46Z</time>
      </trkpt>
      <trkpt lat="44.02256" lon="-0.92494">
        <ele>77</ele>
        <time>2013-04-29T01:55:53Z</time>
      </trkpt>
      <trkpt lat="44.02306" lon="-0.92486">
        <ele>78</ele>
        <time>2013-04-29T01:56:03Z</time>
      </trkpt>
      <trkpt lat="44.02354" lon="-0.92473">
        <ele>80</ele>
        <time>2013-04-29T01:56:13Z</time>
      </trkpt>
      <trkpt lat="44.02377" lon="-0.92458">
        <ele>79</ele>
        <time>2013-04-29T01:56:16Z</time>
      </trkpt>
      <trkpt lat="44.02399" lon="-0.92437">
        <ele>79</ele>
        <time>2013-04-29T01:56:20Z</time>
      </trkpt>
      <trkpt lat="44.02458" lon="-0.92368">
        <ele>79</ele>
        <time>2013-04-29T01:56:30Z</time>
      </trkpt>
      <trkpt lat="44.02542" lon="-0.92284">
        <ele>79</ele>
        <time>2013-04-29T01:56:44Z</time>
      </trkpt>
      <trkpt lat="44.02557" lon="-0.92261">
        <ele>78</ele>
        <time>2013-04-29T01:56:47Z</time>
      </trkpt>
      <trkpt lat="44.02587" lon="-0.92196">
        <ele>77</ele>
        <time>2013-04-29T01:56:55Z</time>
      </trkpt>
      <trkpt lat="44.02768" lon="-0.91772">
        <ele>73</ele>
        <time>2013-04-29T01:57:42Z</time>
      </trkpt>
      <trkpt lat="44.02827" lon="-0.91439">
        <ele>71</ele>
        <time>2013-04-29T01:58:15Z</time>
      </trkpt>
      <trkpt lat="44.0283" lon="-0.9141">
        <ele>71</ele>
        <time>2013-04-29T01:58:18Z</time>
      </trkpt>
      <trkpt lat="44.02826" lon="-0.91352">
        <ele>71</ele>
        <time>2013-04-29T01:58:25Z</time>
      </trkpt>
      <trkpt lat="44.02829" lon="-0.91325">
        <ele>71</ele>
        <time>2013-04-29T01:58:28Z</time>
      </trkpt>
      <trkpt lat="44.02826" lon="-0.91311">
        <ele>72</ele>
        <time>2013-04-29T01:58:30Z</time>
      </trkpt>
      <trkpt lat="44.0283" lon="-0.91294">
        <ele>72</ele>
        <time>2013-04-29T01:58:32Z</time>
      </trkpt>
      <trkpt lat="44.02839" lon="-0.91286">
        <ele>72</ele>
        <time>2013-04-29T01:58:33Z</time>
      </trkpt>
      <trkpt lat="44.02849" lon="-0.91287">
        <ele>72</ele>
        <time>2013-04-29T01:58:35Z</time>
      </trkpt>
      <trkpt lat="44.02867" lon="-0.91269">
        <ele>72</ele>
        <time>2013-04-29T01:58:38Z</time>
      </trkpt>
      <trkpt lat="44.03027" lon="-0.90937">
        <ele>74</ele>
        <time>2013-04-29T01:59:20Z</time>
      </trkpt>
      <trkpt lat="44.03068" lon="-0.90858">
        <ele>74</ele>
        <time>2013-04-29T01:59:31Z</time>
      </trkpt>
      <trkpt lat="44.03073" lon="-0.90853">
        <ele>74</ele>
        <time>2013-04-29T01:59:32Z</time>
      </trkpt>
      <trkpt lat="44.03352" lon="-0.90923">
        <ele>76</ele>
        <time>2013-04-29T02:00:13Z</time>
      </trkpt>
      <trkpt lat="44.03378" lon="-0.90942">
        <ele>76</ele>
        <time>2013-04-29T02:00:17Z</time>
      </trkpt>
      <trkpt lat="44.03433" lon="-0.9096">
        <ele>76</ele>
        <time>2013-04-29T02:00:25Z</time>
      </trkpt>
      <trkpt lat="44.04376" lon="-0.91183">
        <ele>77</ele>
        <time>2013-04-29T02:02:35Z</time>
      </trkpt>
      <trkpt lat="44.04381" lon="-0.91184">
        <ele>77</ele>
        <time>2013-04-29T02:02:36Z</time>
      </trkpt>
      <trkpt lat="44.04387" lon="-0.9117">
        <ele>77</ele>
        <time>2013-04-29T02:02:37Z</time>
      </trkpt>
      <trkpt lat="44.04398" lon="-0.91168">
        <ele>77</ele>
        <time>2013-04-29T02:02:39Z</time>
      </trkpt>
      <trkpt lat="44.04406" lon="-0.91177">
        <ele>77</ele>
        <time>2013-04-29T02:02:40Z</time>
      </trkpt>
      <trkpt lat="44.04408" lon="-0.91191">
        <ele>77</ele>
        <time>2013-04-29T02:02:42Z</time>
      </trkpt>
      <trkpt lat="44.04786" lon="-0.91284">
        <ele>79</ele>
        <time>2013-04-29T02:03:37Z</time>
      </trkpt>
      <trkpt lat="44.04805" lon="-0.91276">
        <ele>79</ele>
        <time>2013-04-29T02:03:40Z</time>
      </trkpt>
      <trkpt lat="44.04809" lon="-0.91267">
        <ele>79</ele>
        <time>2013-04-29T02:03:41Z</time>
      </trkpt>
      <trkpt lat="44.0481" lon="-0.91214">
        <ele>79</ele>
        <time>2013-04-29T02:03:47Z</time>
      </trkpt>
      <trkpt lat="44.04672" lon="-0.90891">
        <ele>80</ele>
        <time>2013-04-29T02:04:25Z</time>
      </trkpt>
      <trkpt lat="44.04632" lon="-0.90782">
        <ele>83</ele>
        <time>2013-04-29T02:04:45Z</time>
      </trkpt>
      <trkpt lat="44.04613" lon="-0.90696">
        <ele>86</ele>
        <time>2013-04-29T02:04:59Z</time>
      </trkpt>
      <trkpt lat="44.04601" lon="-0.9061">
        <ele>84</ele>
        <time>2013-04-29T02:05:08Z</time>
      </trkpt>
      <trkpt lat="44.04599" lon="-0.90533">
        <ele>83</ele>
        <time>2013-04-29T02:05:15Z</time>
      </trkpt>
      <trkpt lat="44.04607" lon="-0.90414">
        <ele>81</ele>
        <time>2013-04-29T02:05:27Z</time>
      </trkpt>
      <trkpt lat="44.04623" lon="-0.90337">
        <ele>80</ele>
        <time>2013-04-29T02:05:34Z</time>
      </trkpt>
      <trkpt lat="44.04731" lon="-0.89988">
        <ele>83</ele>
        <time>2013-04-29T02:06:18Z</time>
      </trkpt>
      <trkpt lat="44.04812" lon="-0.89663">
        <ele>78</ele>
        <time>2013-04-29T02:06:51Z</time>
      </trkpt>
      <trkpt lat="44.04846" lon="-0.89596">
        <ele>77</ele>
        <time>2013-04-29T02:06:59Z</time>
      </trkpt>
      <trkpt lat="44.04908" lon="-0.89505">
        <ele>76</ele>
        <time>2013-04-29T02:07:11Z</time>
      </trkpt>
      <trkpt lat="44.04982" lon="-0.89438">
        <ele>79</ele>
        <time>2013-04-29T02:07:32Z</time>
      </trkpt>
      <trkpt lat="44.05036" lon="-0.89374">
        <ele>83</ele>
        <time>2013-04-29T02:07:49Z</time>
      </trkpt>
      <trkpt lat="44.05124" lon="-0.89195">
        <ele>83</ele>
        <time>2013-04-29T02:08:10Z</time>
      </trkpt>
      <trkpt lat="44.05138" lon="-0.89137">
        <ele>81</ele>
        <time>2013-04-29T02:08:16Z</time>
      </trkpt>
      <trkpt lat="44.05133" lon="-0.89116">
        <ele>81</ele>
        <time>2013-04-29T02:08:18Z</time>
      </trkpt>
      <trkpt lat="44.05137" lon="-0.89098">
        <ele>80</ele>
        <time>2013-04-29T02:08:20Z</time>
      </trkpt>
      <trkpt lat="44.05149" lon="-0.89084">
        <ele>80</ele>
        <time>2013-04-29T02:08:22Z</time>
      </trkpt>
      <trkpt lat="44.05165" lon="-0.8908">
        <ele>80</ele>
        <time>2013-04-29T02:08:24Z</time>
      </trkpt>
      <trkpt lat="44.0518" lon="-0.89068">
        <ele>80</ele>
        <time>2013-04-29T02:08:27Z</time>
      </trkpt>
      <trkpt lat="44.05204" lon="-0.89036">
        <ele>80</ele>
        <time>2013-04-29T02:08:32Z</time>
      </trkpt>
      <trkpt lat="44.05568" lon="-0.88305">
        <ele>87</ele>
        <time>2013-04-29T02:10:13Z</time>
      </trkpt>
      <trkpt lat="44.05725" lon="-0.87829">
        <ele>82</ele>
        <time>2013-04-29T02:11:03Z</time>
      </trkpt>
      <trkpt lat="44.05828" lon="-0.87122">
        <ele>79</ele>
        <time>2013-04-29T02:12:12Z</time>
      </trkpt>
      <trkpt lat="44.05846" lon="-0.87043">
        <ele>79</ele>
        <time>2013-04-29T02:12:20Z</time>
      </trkpt>
      <trkpt lat="44.05877" lon="-0.86962">
        <ele>79</ele>
        <time>2013-04-29T02:12:29Z</time>
      </trkpt>
      <trkpt lat="44.0592" lon="-0.86891">
        <ele>79</ele>
        <time>2013-04-29T02:12:38Z</time>
      </trkpt>
      <trkpt lat="44.05973" lon="-0.86834">
        <ele>79</ele>
        <time>2013-04-29T02:12:47Z</time>
      </trkpt>
      <trkpt lat="44.06125" lon="-0.86738">
        <ele>78</ele>
        <time>2013-04-29T02:13:09Z</time>
      </trkpt>
      <trkpt lat="44.06192" lon="-0.86685">
        <ele>78</ele>
        <time>2013-04-29T02:13:21Z</time>
      </trkpt>
      <trkpt lat="44.06252" lon="-0.8661">
        <ele>79</ele>
        <time>2013-04-29T02:13:33Z</time>
      </trkpt>
      <trkpt lat="44.06297" lon="-0.8652">
        <ele>79</ele>
        <time>2013-04-29T02:13:44Z</time>
      </trkpt>
      <trkpt lat="44.06334" lon="-0.86404">
        <ele>80</ele>
        <time>2013-04-29T02:13:58Z</time>
      </trkpt>
      <trkpt lat="44.06845" lon="-0.84434">
        <ele>86</ele>
        <time>2013-04-29T02:17:33Z</time>
      </trkpt>
      <trkpt lat="44.06904" lon="-0.84218">
        <ele>85</ele>
        <time>2013-04-29T02:17:56Z</time>
      </trkpt>
      <trkpt lat="44.06932" lon="-0.8416">
        <ele>84</ele>
        <time>2013-04-29T02:18:02Z</time>
      </trkpt>
      <trkpt lat="44.06961" lon="-0.84122">
        <ele>84</ele>
        <time>2013-04-29T02:18:08Z</time>
      </trkpt>
      <trkpt lat="44.07805" lon="-0.83213">
        <ele>81</ele>
        <time>2013-04-29T02:20:30Z</time>
      </trkpt>
      <trkpt lat="44.07862" lon="-0.83156">
        <ele>80</ele>
        <time>2013-04-29T02:20:39Z</time>
      </trkpt>
      <trkpt lat="44.07896" lon="-0.83137">
        <ele>80</ele>
        <time>2013-04-29T02:20:44Z</time>
      </trkpt>
      <trkpt lat="44.09034" lon="-0.82681">
        <ele>81</ele>
        <time>2013-04-29T02:23:25Z</time>
      </trkpt>
      <trkpt lat="44.09081" lon="-0.82659">
        <ele>81</ele>
        <time>2013-04-29T02:23:33Z</time>
      </trkpt>
      <trkpt lat="44.09791" lon="-0.82265">
        <ele>90</ele>
        <time>2013-04-29T02:25:35Z</time>
      </trkpt>
      <trkpt lat="44.09847" lon="-0.82224">
        <ele>89</ele>
        <time>2013-04-29T02:25:44Z</time>
      </trkpt>
      <trkpt lat="44.10588" lon="-0.81522">
        <ele>84</ele>
        <time>2013-04-29T02:27:43Z</time>
      </trkpt>
      <trkpt lat="44.10842" lon="-0.81287">
        <ele>83</ele>
        <time>2013-04-29T02:28:24Z</time>
      </trkpt>
      <trkpt lat="44.10871" lon="-0.81271">
        <ele>83</ele>
        <time>2013-04-29T02:28:29Z</time>
      </trkpt>
      <trkpt lat="44.11135" lon="-0.81226">
        <ele>85</ele>
        <time>2013-04-29T02:29:09Z</time>
      </trkpt>
      <trkpt lat="44.11153" lon="-0.81217">
        <ele>84</ele>
        <time>2013-04-29T02:29:11Z</time>
      </trkpt>
      <trkpt lat="44.11227" lon="-0.81135">
        <ele>83</ele>
        <time>2013-04-29T02:29:24Z</time>
      </trkpt>
      <trkpt lat="44.1125" lon="-0.811">
        <ele>83</ele>
        <time>2013-04-29T02:29:28Z</time>
      </trkpt>
      <trkpt lat="44.11556" lon="-0.80555">
        <ele>83</ele>
        <time>2013-04-29T02:30:35Z</time>
      </trkpt>
      <trkpt lat="44.11591" lon="-0.80509">
        <ele>83</ele>
        <time>2013-04-29T02:30:41Z</time>
      </trkpt>
      <trkpt lat="44.11591" lon="-0.80509">
        <ele>83</ele>
        <time>2013-04-29T02:30:42Z</time>
      </trkpt>
      <trkpt lat="44.11705" lon="-0.80389">
        <ele>83</ele>
        <time>2013-04-29T02:31:01Z</time>
      </trkpt>
      <trkpt lat="44.11849" lon="-0.8022">
        <ele>84</ele>
        <time>2013-04-29T02:31:29Z</time>
      </trkpt>
      <trkpt lat="44.11934" lon="-0.80137">
        <ele>82</ele>
        <time>2013-04-29T02:31:43Z</time>
      </trkpt>
      <trkpt lat="44.11972" lon="-0.80091">
        <ele>82</ele>
        <time>2013-04-29T02:31:50Z</time>
      </trkpt>
      <trkpt lat="44.12369" lon="-0.79393">
        <ele>85</ele>
        <time>2013-04-29T02:33:22Z</time>
      </trkpt>
      <trkpt lat="44.12385" lon="-0.79372">
        <ele>85</ele>
        <time>2013-04-29T02:33:25Z</time>
      </trkpt>
      <trkpt lat="44.12423" lon="-0.79348">
        <ele>85</ele>
        <time>2013-04-29T02:33:31Z</time>
      </trkpt>
      <trkpt lat="44.12589" lon="-0.79287">
        <ele>85</ele>
        <time>2013-04-29T02:33:53Z</time>
      </trkpt>
      <trkpt lat="44.12614" lon="-0.79273">
        <ele>85</ele>
        <time>2013-04-29T02:33:57Z</time>
      </trkpt>
      <trkpt lat="44.12644" lon="-0.79238">
        <ele>85</ele>
        <time>2013-04-29T02:34:02Z</time>
      </trkpt>
      <trkpt lat="44.12833" lon="-0.78907">
        <ele>85</ele>
        <time>2013-04-29T02:34:43Z</time>
      </trkpt>
      <trkpt lat="44.1285" lon="-0.78867">
        <ele>84</ele>
        <time>2013-04-29T02:34:47Z</time>
      </trkpt>
      <trkpt lat="44.12894" lon="-0.78712">
        <ele>81</ele>
        <time>2013-04-29T02:35:03Z</time>
      </trkpt>
      <trkpt lat="44.12914" lon="-0.78662">
        <ele>81</ele>
        <time>2013-04-29T02:35:11Z</time>
      </trkpt>
      <trkpt lat="44.1295" lon="-0.78593">
        <ele>83</ele>
        <time>2013-04-29T02:35:22Z</time>
      </trkpt>
      <trkpt lat="44.13137" lon="-0.78303">
        <ele>87</ele>
        <time>2013-04-29T02:36:09Z</time>
      </trkpt>
      <trkpt lat="44.1429" lon="-0.76362">
        <ele>83</ele>
        <time>2013-04-29T02:40:10Z</time>
      </trkpt>
      <trkpt lat="44.14333" lon="-0.76251">
        <ele>83</ele>
        <time>2013-04-29T02:40:22Z</time>
      </trkpt>
      <trkpt lat="44.14783" lon="-0.74799">
        <ele>82</ele>
        <time>2013-04-29T02:42:54Z</time>
      </trkpt>
      <trkpt lat="44.14848" lon="-0.746">
        <ele>80</ele>
        <time>2013-04-29T02:43:15Z</time>
      </trkpt>
      <trkpt lat="44.14838" lon="-0.74521">
        <ele>80</ele>
        <time>2013-04-29T02:43:23Z</time>
      </trkpt>
      <trkpt lat="44.14837" lon="-0.74482">
        <ele>80</ele>
        <time>2013-04-29T02:43:26Z</time>
      </trkpt>
      <trkpt lat="44.14859" lon="-0.74102">
        <ele>80</ele>
        <time>2013-04-29T02:44:03Z</time>
      </trkpt>
      <trkpt lat="44.14863" lon="-0.74075">
        <ele>79</ele>
        <time>2013-04-29T02:44:06Z</time>
      </trkpt>
      <trkpt lat="44.14869" lon="-0.74063">
        <ele>79</ele>
        <time>2013-04-29T02:44:07Z</time>
      </trkpt>
      <trkpt lat="44.14844" lon="-0.74027">
        <ele>79</ele>
        <time>2013-04-29T02:44:12Z</time>
      </trkpt>
      <trkpt lat="44.14776" lon="-0.7387">
        <ele>79</ele>
        <time>2013-04-29T02:44:29Z</time>
      </trkpt>
      <trkpt lat="44.1473" lon="-0.73751">
        <ele>80</ele>
        <time>2013-04-29T02:44:45Z</time>
      </trkpt>
      <trkpt lat="44.14738" lon="-0.73722">
        <ele>80</ele>
        <time>2013-04-29T02:44:48Z</time>
      </trkpt>
      <trkpt lat="44.1474" lon="-0.73352">
        <ele>82</ele>
        <time>2013-04-29T02:45:28Z</time>
      </trkpt>
      <trkpt lat="44.14782" lon="-0.72785">
        <ele>83</ele>
        <time>2013-04-29T02:46:25Z</time>
      </trkpt>
      <trkpt lat="44.14782" lon="-0.72785">
        <ele>83</ele>
        <time>2013-04-29T02:46:26Z</time>
      </trkpt>
      <trkpt lat="44.14788" lon="-0.72722">
        <ele>82</ele>
        <time>2013-04-29T02:46:32Z</time>
      </trkpt>
      <trkpt lat="44.14798" lon="-0.72686">
        <ele>82</ele>
        <time>2013-04-29T02:46:36Z</time>
      </trkpt>
      <trkpt lat="44.14812" lon="-0.72666">
        <ele>82</ele>
        <time>2013-04-29T02:46:38Z</time>
      </trkpt>
      <trkpt lat="44.14925" lon="-0.72546">
        <ele>82</ele>
        <time>2013-04-29T02:46:57Z</time>
      </trkpt>
      <trkpt lat="44.14941" lon="-0.72521">
        <ele>82</ele>
        <time>2013-04-29T02:47:01Z</time>
      </trkpt>
      <trkpt lat="44.14954" lon="-0.72485">
        <ele>82</ele>
        <time>2013-04-29T02:47:05Z</time>
      </trkpt>
      <trkpt lat="44.15246" lon="-0.7114">
        <ele>82</ele>
        <time>2013-04-29T02:49:19Z</time>
      </trkpt>
      <trkpt lat="44.15805" lon="-0.68528">
        <ele>88</ele>
        <time>2013-04-29T02:53:55Z</time>
      </trkpt>
      <trkpt lat="44.16004" lon="-0.67556">
        <ele>88</ele>
        <time>2013-04-29T02:55:32Z</time>
      </trkpt>
      <trkpt lat="44.16143" lon="-0.66934">
        <ele>93</ele>
        <time>2013-04-29T02:56:46Z</time>
      </trkpt>
      <trkpt lat="44.16216" lon="-0.66587">
        <ele>94</ele>
        <time>2013-04-29T02:57:23Z</time>
      </trkpt>
      <trkpt lat="44.16241" lon="-0.66426">
        <ele>94</ele>
        <time>2013-04-29T02:57:39Z</time>
      </trkpt>
      <trkpt lat="44.16261" lon="-0.66379">
        <ele>94</ele>
        <time>2013-04-29T02:57:44Z</time>
      </trkpt>
      <trkpt lat="44.16332" lon="-0.66299">
        <ele>94</ele>
        <time>2013-04-29T02:57:56Z</time>
      </trkpt>
      <trkpt lat="44.16359" lon="-0.66255">
        <ele>94</ele>
        <time>2013-04-29T02:58:02Z</time>
      </trkpt>
      <trkpt lat="44.16698" lon="-0.65589">
        <ele>95</ele>
        <time>2013-04-29T02:59:23Z</time>
      </trkpt>
      <trkpt lat="44.16726" lon="-0.65517">
        <ele>95</ele>
        <time>2013-04-29T02:59:30Z</time>
      </trkpt>
      <trkpt lat="44.16773" lon="-0.65354">
        <ele>95</ele>
        <time>2013-04-29T02:59:47Z</time>
      </trkpt>
      <trkpt lat="44.16791" lon="-0.65314">
        <ele>95</ele>
        <time>2013-04-29T02:59:53Z</time>
      </trkpt>
      <trkpt lat="44.16956" lon="-0.65056">
        <ele>100</ele>
        <time>2013-04-29T03:00:37Z</time>
      </trkpt>
      <trkpt lat="44.16984" lon="-0.65021">
        <ele>100</ele>
        <time>2013-04-29T03:00:43Z</time>
      </trkpt>
      <trkpt lat="44.17018" lon="-0.64988">
        <ele>100</ele>
        <time>2013-04-29T03:00:49Z</time>
      </trkpt>
      <trkpt lat="44.1743" lon="-0.64631">
        <ele>104</ele>
        <time>2013-04-29T03:02:02Z</time>
      </trkpt>
      <trkpt lat="44.17605" lon="-0.64474">
        <ele>107</ele>
        <time>2013-04-29T03:02:37Z</time>
      </trkpt>
      <trkpt lat="44.17943" lon="-0.63904">
        <ele>108</ele>
        <time>2013-04-29T03:03:50Z</time>
      </trkpt>
      <trkpt lat="44.18523" lon="-0.62944">
        <ele>108</ele>
        <time>2013-04-29T03:05:50Z</time>
      </trkpt>
      <trkpt lat="44.19044" lon="-0.6207">
        <ele>110</ele>
        <time>2013-04-29T03:07:44Z</time>
      </trkpt>
      <trkpt lat="44.20227" lon="-0.60763">
        <ele>108</ele>
        <time>2013-04-29T03:11:06Z</time>
      </trkpt>
      <trkpt lat="44.21116" lon="-0.59301">
        <ele>115</ele>
        <time>2013-04-29T03:14:26Z</time>
      </trkpt>
      <trkpt lat="44.2166" lon="-0.58614">
        <ele>110</ele>
        <time>2013-04-29T03:16:04Z</time>
      </trkpt>
      <trkpt lat="44.21819" lon="-0.58405">
        <ele>110</ele>
        <time>2013-04-29T03:16:33Z</time>
      </trkpt>
      <trkpt lat="44.22391" lon="-0.57593">
        <ele>102</ele>
        <time>2013-04-29T03:18:22Z</time>
      </trkpt>
      <trkpt lat="44.22794" lon="-0.57034">
        <ele>104</ele>
        <time>2013-04-29T03:19:43Z</time>
      </trkpt>
      <trkpt lat="44.22844" lon="-0.56992">
        <ele>103</ele>
        <time>2013-04-29T03:19:51Z</time>
      </trkpt>
      <trkpt lat="44.23661" lon="-0.56407">
        <ele>99</ele>
        <time>2013-04-29T03:21:53Z</time>
      </trkpt>
      <trkpt lat="44.24802" lon="-0.55684">
        <ele>95</ele>
        <time>2013-04-29T03:24:41Z</time>
      </trkpt>
      <trkpt lat="44.25056" lon="-0.5549">
        <ele>90</ele>
        <time>2013-04-29T03:25:19Z</time>
      </trkpt>
      <trkpt lat="44.25323" lon="-0.55297">
        <ele>93</ele>
        <time>2013-04-29T03:26:07Z</time>
      </trkpt>
      <trkpt lat="44.25356" lon="-0.5526">
        <ele>93</ele>
        <time>2013-04-29T03:26:12Z</time>
      </trkpt>
      <trkpt lat="44.25369" lon="-0.55237">
        <ele>93</ele>
        <time>2013-04-29T03:26:15Z</time>
      </trkpt>
      <trkpt lat="44.25386" lon="-0.55193">
        <ele>93</ele>
        <time>2013-04-29T03:26:20Z</time>
      </trkpt>
      <trkpt lat="44.25391" lon="-0.55167">
        <ele>92</ele>
        <time>2013-04-29T03:26:23Z</time>
      </trkpt>
      <trkpt lat="44.25394" lon="-0.55113">
        <ele>92</ele>
        <time>2013-04-29T03:26:28Z</time>
      </trkpt>
      <trkpt lat="44.25366" lon="-0.54958">
        <ele>92</ele>
        <time>2013-04-29T03:26:43Z</time>
      </trkpt>
      <trkpt lat="44.25326" lon="-0.54825">
        <ele>94</ele>
        <time>2013-04-29T03:27:02Z</time>
      </trkpt>
      <trkpt lat="44.25326" lon="-0.54796">
        <ele>93</ele>
        <time>2013-04-29T03:27:04Z</time>
      </trkpt>
      <trkpt lat="44.25336" lon="-0.54756">
        <ele>93</ele>
        <time>2013-04-29T03:27:09Z</time>
      </trkpt>
      <trkpt lat="44.25625" lon="-0.5402">
        <ele>91</ele>
        <time>2013-04-29T03:28:29Z</time>
      </trkpt>
      <trkpt lat="44.25664" lon="-0.5393">
        <ele>89</ele>
        <time>2013-04-29T03:28:39Z</time>
      </trkpt>
      <trkpt lat="44.25695" lon="-0.53882">
        <ele>89</ele>
        <time>2013-04-29T03:28:45Z</time>
      </trkpt>
      <trkpt lat="44.25719" lon="-0.53855">
        <ele>89</ele>
        <time>2013-04-29T03:28:51Z</time>
      </trkpt>
      <trkpt lat="44.2588" lon="-0.5369">
        <ele>94</ele>
        <time>2013-04-29T03:29:28Z</time>
      </trkpt>
      <trkpt lat="44.26102" lon="-0.53391">
        <ele>92</ele>
        <time>2013-04-29T03:30:09Z</time>
      </trkpt>
      <trkpt lat="44.26123" lon="-0.53356">
        <ele>91</ele>
        <time>2013-04-29T03:30:13Z</time>
      </trkpt>
      <trkpt lat="44.26138" lon="-0.53315">
        <ele>91</ele>
        <time>2013-04-29T03:30:18Z</time>
      </trkpt>
      <trkpt lat="44.26229" lon="-0.52992">
        <ele>89</ele>
        <time>2013-04-29T03:30:51Z</time>
      </trkpt>
      <trkpt lat="44.26277" lon="-0.5276">
        <ele>87</ele>
        <time>2013-04-29T03:31:14Z</time>
      </trkpt>
      <trkpt lat="44.2631" lon="-0.52617">
        <ele>88</ele>
        <time>2013-04-29T03:31:31Z</time>
      </trkpt>
      <trkpt lat="44.26355" lon="-0.52468">
        <ele>89</ele>
        <time>2013-04-29T03:31:49Z</time>
      </trkpt>
      <trkpt lat="44.26358" lon="-0.52462">
        <ele>89</ele>
        <time>2013-04-29T03:31:50Z</time>
      </trkpt>
      <trkpt lat="44.2637" lon="-0.52458">
        <ele>89</ele>
        <time>2013-04-29T03:31:51Z</time>
      </trkpt>
      <trkpt lat="44.26361" lon="-0.52283">
        <ele>89</ele>
        <time>2013-04-29T03:32:08Z</time>
      </trkpt>
      <trkpt lat="44.26282" lon="-0.5203">
        <ele>89</ele>
        <time>2013-04-29T03:32:34Z</time>
      </trkpt>
      <trkpt lat="44.26473" lon="-0.51858">
        <ele>90</ele>
        <time>2013-04-29T03:33:07Z</time>
      </trkpt>
      <trkpt lat="44.2652" lon="-0.51829">
        <ele>90</ele>
        <time>2013-04-29T03:33:15Z</time>
      </trkpt>
      <trkpt lat="44.26541" lon="-0.51826">
        <ele>90</ele>
        <time>2013-04-29T03:33:18Z</time>
      </trkpt>
      <trkpt lat="44.26571" lon="-0.5183">
        <ele>91</ele>
        <time>2013-04-29T03:33:23Z</time>
      </trkpt>
      <trkpt lat="44.26731" lon="-0.51858">
        <ele>91</ele>
        <time>2013-04-29T03:33:45Z</time>
      </trkpt>
      <trkpt lat="44.26731" lon="-0.51857">
        <ele>90</ele>
        <time>2013-04-29T03:33:45Z</time>
      </trkpt>
      <trkpt lat="44.2685" lon="-0.51874">
        <ele>89</ele>
        <time>2013-04-29T03:34:01Z</time>
      </trkpt>
      <trkpt lat="44.26886" lon="-0.5187">
        <ele>88</ele>
        <time>2013-04-29T03:34:06Z</time>
      </trkpt>
      <trkpt lat="44.2695" lon="-0.51835">
        <ele>87</ele>
        <time>2013-04-29T03:34:15Z</time>
      </trkpt>
      <trkpt lat="44.27065" lon="-0.51761">
        <ele>84</ele>
        <time>2013-04-29T03:34:32Z</time>
      </trkpt>
      <trkpt lat="44.27172" lon="-0.51657">
        <ele>83</ele>
        <time>2013-04-29T03:34:49Z</time>
      </trkpt>
      <trkpt lat="44.27193" lon="-0.51617">
        <ele>83</ele>
        <time>2013-04-29T03:34:55Z</time>
      </trkpt>
      <trkpt lat="44.27197" lon="-0.51596">
        <ele>83</ele>
        <time>2013-04-29T03:34:57Z</time>
      </trkpt>
      <trkpt lat="44.2721" lon="-0.51334">
        <ele>85</ele>
        <time>2013-04-29T03:35:26Z</time>
      </trkpt>
      <trkpt lat="44.27219" lon="-0.51295">
        <ele>85</ele>
        <time>2013-04-29T03:35:31Z</time>
      </trkpt>
      <trkpt lat="44.2723" lon="-0.51273">
        <ele>86</ele>
        <time>2013-04-29T03:35:35Z</time>
      </trkpt>
      <trkpt lat="44.27397" lon="-0.51107">
        <ele>91</ele>
        <time>2013-04-29T03:36:14Z</time>
      </trkpt>
      <trkpt lat="44.27443" lon="-0.51053">
        <ele>91</ele>
        <time>2013-04-29T03:36:22Z</time>
      </trkpt>
      <trkpt lat="44.28786" lon="-0.49094">
        <ele>93</ele>
        <time>2013-04-29T03:40:46Z</time>
      </trkpt>
      <trkpt lat="44.28865" lon="-0.48988">
        <ele>92</ele>
        <time>2013-04-29T03:41:01Z</time>
      </trkpt>
      <trkpt lat="44.29118" lon="-0.48679">
        <ele>92</ele>
        <time>2013-04-29T03:41:46Z</time>
      </trkpt>
      <trkpt lat="44.29439" lon="-0.48241">
        <ele>90</ele>
        <time>2013-04-29T03:42:46Z</time>
      </trkpt>
      <trkpt lat="44.29831" lon="-0.47724">
        <ele>90</ele>
        <time>2013-04-29T03:43:58Z</time>
      </trkpt>
      <trkpt lat="44.29831" lon="-0.47724">
        <ele>90</ele>
        <time>2013-04-29T03:43:59Z</time>
      </trkpt>
      <trkpt lat="44.2984" lon="-0.47713">
        <ele>90</ele>
        <time>2013-04-29T03:44:01Z</time>
      </trkpt>
      <trkpt lat="44.29759" lon="-0.47523">
        <ele>93</ele>
        <time>2013-04-29T03:44:29Z</time>
      </trkpt>
      <trkpt lat="44.29729" lon="-0.47421">
        <ele>93</ele>
        <time>2013-04-29T03:44:40Z</time>
      </trkpt>
      <trkpt lat="44.29638" lon="-0.46875">
        <ele>94</ele>
        <time>2013-04-29T03:45:35Z</time>
      </trkpt>
      <trkpt lat="44.29613" lon="-0.4674">
        <ele>95</ele>
        <time>2013-04-29T03:45:51Z</time>
      </trkpt>
      <trkpt lat="44.29236" lon="-0.45046">
        <ele>104</ele>
        <time>2013-04-29T03:49:02Z</time>
      </trkpt>
      <trkpt lat="44.29207" lon="-0.44926">
        <ele>102</ele>
        <time>2013-04-29T03:49:14Z</time>
      </trkpt>
      <trkpt lat="44.29135" lon="-0.44685">
        <ele>98</ele>
        <time>2013-04-29T03:49:39Z</time>
      </trkpt>
      <trkpt lat="44.29131" lon="-0.44636">
        <ele>98</ele>
        <time>2013-04-29T03:49:45Z</time>
      </trkpt>
      <trkpt lat="44.29133" lon="-0.44405">
        <ele>99</ele>
        <time>2013-04-29T03:50:09Z</time>
      </trkpt>
      <trkpt lat="44.29128" lon="-0.44324">
        <ele>99</ele>
        <time>2013-04-29T03:50:17Z</time>
      </trkpt>
      <trkpt lat="44.2903" lon="-0.43853">
        <ele>100</ele>
        <time>2013-04-29T03:51:06Z</time>
      </trkpt>
      <trkpt lat="44.28998" lon="-0.43561">
        <ele>101</ele>
        <time>2013-04-29T03:51:36Z</time>
      </trkpt>
      <trkpt lat="44.28971" lon="-0.43423">
        <ele>102</ele>
        <time>2013-04-29T03:51:52Z</time>
      </trkpt>
      <trkpt lat="44.28961" lon="-0.43307">
        <ele>102</ele>
        <time>2013-04-29T03:52:04Z</time>
      </trkpt>
      <trkpt lat="44.29029" lon="-0.42653">
        <ele>104</ele>
        <time>2013-04-29T03:53:12Z</time>
      </trkpt>
      <trkpt lat="44.29032" lon="-0.4261">
        <ele>104</ele>
        <time>2013-04-29T03:53:16Z</time>
      </trkpt>
      <trkpt lat="44.29028" lon="-0.4254">
        <ele>104</ele>
        <time>2013-04-29T03:53:22Z</time>
      </trkpt>
      <trkpt lat="44.28969" lon="-0.42241">
        <ele>104</ele>
        <time>2013-04-29T03:53:52Z</time>
      </trkpt>
      <trkpt lat="44.28924" lon="-0.41975">
        <ele>104</ele>
        <time>2013-04-29T03:54:18Z</time>
      </trkpt>
      <trkpt lat="44.28637" lon="-0.40595">
        <ele>104</ele>
        <time>2013-04-29T03:56:36Z</time>
      </trkpt>
      <trkpt lat="44.28638" lon="-0.40532">
        <ele>104</ele>
        <time>2013-04-29T03:56:43Z</time>
      </trkpt>
      <trkpt lat="44.28728" lon="-0.40147">
        <ele>109</ele>
        <time>2013-04-29T03:57:32Z</time>
      </trkpt>
      <trkpt lat="44.28847" lon="-0.39639">
        <ele>111</ele>
        <time>2013-04-29T03:58:28Z</time>
      </trkpt>
      <trkpt lat="44.28886" lon="-0.39334">
        <ele>113</ele>
        <time>2013-04-29T03:59:03Z</time>
      </trkpt>
      <trkpt lat="44.29027" lon="-0.38114">
        <ele>118</ele>
        <time>2013-04-29T04:01:13Z</time>
      </trkpt>
      <trkpt lat="44.2906" lon="-0.37881">
        <ele>118</ele>
        <time>2013-04-29T04:01:36Z</time>
      </trkpt>
      <trkpt lat="44.29079" lon="-0.37716">
        <ele>117</ele>
        <time>2013-04-29T04:01:52Z</time>
      </trkpt>
      <trkpt lat="44.29049" lon="-0.37239">
        <ele>117</ele>
        <time>2013-04-29T04:02:37Z</time>
      </trkpt>
      <trkpt lat="44.29032" lon="-0.36854">
        <ele>118</ele>
        <time>2013-04-29T04:03:17Z</time>
      </trkpt>
      <trkpt lat="44.28937" lon="-0.35149">
        <ele>118</ele>
        <time>2013-04-29T04:06:00Z</time>
      </trkpt>
      <trkpt lat="44.28934" lon="-0.35067">
        <ele>117</ele>
        <time>2013-04-29T04:06:08Z</time>
      </trkpt>
      <trkpt lat="44.28947" lon="-0.34872">
        <ele>116</ele>
        <time>2013-04-29T04:06:27Z</time>
      </trkpt>
      <trkpt lat="44.28929" lon="-0.34824">
        <ele>116</ele>
        <time>2013-04-29T04:06:32Z</time>
      </trkpt>
      <trkpt lat="44.28822" lon="-0.34589">
        <ele>117</ele>
        <time>2013-04-29T04:07:01Z</time>
      </trkpt>
      <trkpt lat="44.28747" lon="-0.34326">
        <ele>115</ele>
        <time>2013-04-29T04:07:28Z</time>
      </trkpt>
      <trkpt lat="44.28605" lon="-0.33882">
        <ele>123</ele>
        <time>2013-04-29T04:08:34Z</time>
      </trkpt>
      <trkpt lat="44.28566" lon="-0.33697">
        <ele>121</ele>
        <time>2013-04-29T04:08:52Z</time>
      </trkpt>
      <trkpt lat="44.28555" lon="-0.33622">
        <ele>120</ele>
        <time>2013-04-29T04:08:59Z</time>
      </trkpt>
      <trkpt lat="44.28497" lon="-0.33349">
        <ele>120</ele>
        <time>2013-04-29T04:09:27Z</time>
      </trkpt>
      <trkpt lat="44.28353" lon="-0.32914">
        <ele>111</ele>
        <time>2013-04-29T04:10:13Z</time>
      </trkpt>
      <trkpt lat="44.28286" lon="-0.32664">
        <ele>116</ele>
        <time>2013-04-29T04:10:50Z</time>
      </trkpt>
      <trkpt lat="44.28212" lon="-0.32361">
        <ele>117</ele>
        <time>2013-04-29T04:11:23Z</time>
      </trkpt>
      <trkpt lat="44.28091" lon="-0.31821">
        <ele>121</ele>
        <time>2013-04-29T04:12:27Z</time>
      </trkpt>
      <trkpt lat="44.28041" lon="-0.31579">
        <ele>120</ele>
        <time>2013-04-29T04:12:51Z</time>
      </trkpt>
      <trkpt lat="44.28042" lon="-0.31513">
        <ele>119</ele>
        <time>2013-04-29T04:12:57Z</time>
      </trkpt>
      <trkpt lat="44.28083" lon="-0.3108">
        <ele>118</ele>
        <time>2013-04-29T04:13:39Z</time>
      </trkpt>
      <trkpt lat="44.28087" lon="-0.3096">
        <ele>115</ele>
        <time>2013-04-29T04:13:50Z</time>
      </trkpt>
      <trkpt lat="44.28082" lon="-0.3072">
        <ele>112</ele>
        <time>2013-04-29T04:14:13Z</time>
      </trkpt>
      <trkpt lat="44.28078" lon="-0.30694">
        <ele>111</ele>
        <time>2013-04-29T04:14:16Z</time>
      </trkpt>
      <trkpt lat="44.28067" lon="-0.30665">
        <ele>111</ele>
        <time>2013-04-29T04:14:19Z</time>
      </trkpt>
      <trkpt lat="44.27919" lon="-0.30366">
        <ele>108</ele>
        <time>2013-04-29T04:14:54Z</time>
      </trkpt>
      <trkpt lat="44.27914" lon="-0.30346">
        <ele>108</ele>
        <time>2013-04-29T04:14:57Z</time>
      </trkpt>
      <trkpt lat="44.27914" lon="-0.30314">
        <ele>109</ele>
        <time>2013-04-29T04:15:02Z</time>
      </trkpt>
      <trkpt lat="44.27937" lon="-0.30228">
        <ele>111</ele>
        <time>2013-04-29T04:15:15Z</time>
      </trkpt>
      <trkpt lat="44.28065" lon="-0.29864">
        <ele>109</ele>
        <time>2013-04-29T04:15:54Z</time>
      </trkpt>
      <trkpt lat="44.28077" lon="-0.29635">
        <ele>110</ele>
        <time>2013-04-29T04:16:18Z</time>
      </trkpt>
      <trkpt lat="44.2808" lon="-0.29485">
        <ele>111</ele>
        <time>2013-04-29T04:16:35Z</time>
      </trkpt>
      <trkpt lat="44.28088" lon="-0.29409">
        <ele>109</ele>
        <time>2013-04-29T04:16:42Z</time>
      </trkpt>
      <trkpt lat="44.28095" lon="-0.29383">
        <ele>109</ele>
        <time>2013-04-29T04:16:45Z</time>
      </trkpt>
      <trkpt lat="44.28124" lon="-0.29319">
        <ele>108</ele>
        <time>2013-04-29T04:16:52Z</time>
      </trkpt>
      <trkpt lat="44.2835" lon="-0.2908">
        <ele>108</ele>
        <time>2013-04-29T04:17:30Z</time>
      </trkpt>
      <trkpt lat="44.28382" lon="-0.29035">
        <ele>106</ele>
        <time>2013-04-29T04:17:36Z</time>
      </trkpt>
      <trkpt lat="44.28415" lon="-0.28979">
        <ele>104</ele>
        <time>2013-04-29T04:17:43Z</time>
      </trkpt>
      <trkpt lat="44.28525" lon="-0.28702">
        <ele>101</ele>
        <time>2013-04-29T04:18:13Z</time>
      </trkpt>
      <trkpt lat="44.28614" lon="-0.28493">
        <ele>100</ele>
        <time>2013-04-29T04:18:37Z</time>
      </trkpt>
      <trkpt lat="44.28729" lon="-0.28044">
        <ele>99</ele>
        <time>2013-04-29T04:19:22Z</time>
      </trkpt>
      <trkpt lat="44.28756" lon="-0.27959">
        <ele>99</ele>
        <time>2013-04-29T04:19:31Z</time>
      </trkpt>
      <trkpt lat="44.28989" lon="-0.27428">
        <ele>99</ele>
        <time>2013-04-29T04:20:31Z</time>
      </trkpt>
      <trkpt lat="44.29009" lon="-0.27364">
        <ele>99</ele>
        <time>2013-04-29T04:20:39Z</time>
      </trkpt>
      <trkpt lat="44.29055" lon="-0.27184">
        <ele>101</ele>
        <time>2013-04-29T04:21:00Z</time>
      </trkpt>
      <trkpt lat="44.29069" lon="-0.27094">
        <ele>100</ele>
        <time>2013-04-29T04:21:09Z</time>
      </trkpt>
      <trkpt lat="44.29133" lon="-0.26813">
        <ele>99</ele>
        <time>2013-04-29T04:21:37Z</time>
      </trkpt>
      <trkpt lat="44.2917" lon="-0.26691">
        <ele>99</ele>
        <time>2013-04-29T04:21:50Z</time>
      </trkpt>
      <trkpt lat="44.29233" lon="-0.26514">
        <ele>97</ele>
        <time>2013-04-29T04:22:09Z</time>
      </trkpt>
      <trkpt lat="44.29249" lon="-0.26489">
        <ele>96</ele>
        <time>2013-04-29T04:22:12Z</time>
      </trkpt>
      <trkpt lat="44.29256" lon="-0.26331">
        <ele>93</ele>
        <time>2013-04-29T04:22:27Z</time>
      </trkpt>
      <trkpt lat="44.29251" lon="-0.26288">
        <ele>93</ele>
        <time>2013-04-29T04:22:32Z</time>
      </trkpt>
      <trkpt lat="44.29248" lon="-0.26276">
        <ele>93</ele>
        <time>2013-04-29T04:22:33Z</time>
      </trkpt>
      <trkpt lat="44.29195" lon="-0.26183">
        <ele>94</ele>
        <time>2013-04-29T04:22:46Z</time>
      </trkpt>
      <trkpt lat="44.29077" lon="-0.26237">
        <ele>93</ele>
        <time>2013-04-29T04:23:03Z</time>
      </trkpt>
      <trkpt lat="44.29077" lon="-0.26237">
        <ele>93</ele>
        <time>2013-04-29T04:23:04Z</time>
      </trkpt>
      <trkpt lat="44.29195" lon="-0.26183">
        <ele>94</ele>
        <time>2013-04-29T04:23:23Z</time>
      </trkpt>
      <trkpt lat="44.29166" lon="-0.26062">
        <ele>97</ele>
        <time>2013-04-29T04:23:42Z</time>
      </trkpt>
      <trkpt lat="44.29177" lon="-0.25979">
        <ele>97</ele>
        <time>2013-04-29T04:23:52Z</time>
      </trkpt>
      <trkpt lat="44.29206" lon="-0.25481">
        <ele>101</ele>
        <time>2013-04-29T04:24:48Z</time>
      </trkpt>
      <trkpt lat="44.29261" lon="-0.24734">
        <ele>101</ele>
        <time>2013-04-29T04:26:00Z</time>
      </trkpt>
      <trkpt lat="44.2927" lon="-0.24537">
        <ele>107</ele>
        <time>2013-04-29T04:26:33Z</time>
      </trkpt>
      <trkpt lat="44.29268" lon="-0.24501">
        <ele>107</ele>
        <time>2013-04-29T04:26:37Z</time>
      </trkpt>
      <trkpt lat="44.29257" lon="-0.24428">
        <ele>107</ele>
        <time>2013-04-29T04:26:45Z</time>
      </trkpt>
      <trkpt lat="44.29231" lon="-0.2434">
        <ele>108</ele>
        <time>2013-04-29T04:26:55Z</time>
      </trkpt>
      <trkpt lat="44.29037" lon="-0.23854">
        <ele>110</ele>
        <time>2013-04-29T04:27:53Z</time>
      </trkpt>
      <trkpt lat="44.28863" lon="-0.23401">
        <ele>108</ele>
        <time>2013-04-29T04:28:42Z</time>
      </trkpt>
      <trkpt lat="44.28849" lon="-0.23323">
        <ele>109</ele>
        <time>2013-04-29T04:28:54Z</time>
      </trkpt>
      <trkpt lat="44.28853" lon="-0.23135">
        <ele>114</ele>
        <time>2013-04-29T04:29:22Z</time>
      </trkpt>
      <trkpt lat="44.2882" lon="-0.22882">
        <ele>113</ele>
        <time>2013-04-29T04:29:47Z</time>
      </trkpt>
      <trkpt lat="44.28812" lon="-0.22836">
        <ele>111</ele>
        <time>2013-04-29T04:29:51Z</time>
      </trkpt>
      <trkpt lat="44.28805" lon="-0.22815">
        <ele>111</ele>
        <time>2013-04-29T04:29:54Z</time>
      </trkpt>
      <trkpt lat="44.28794" lon="-0.228">
        <ele>110</ele>
        <time>2013-04-29T04:29:56Z</time>
      </trkpt>
      <trkpt lat="44.2877" lon="-0.22783">
        <ele>109</ele>
        <time>2013-04-29T04:29:59Z</time>
      </trkpt>
      <trkpt lat="44.28763" lon="-0.22771">
        <ele>109</ele>
        <time>2013-04-29T04:30:01Z</time>
      </trkpt>
      <trkpt lat="44.28762" lon="-0.22756">
        <ele>108</ele>
        <time>2013-04-29T04:30:02Z</time>
      </trkpt>
      <trkpt lat="44.28766" lon="-0.22739">
        <ele>108</ele>
        <time>2013-04-29T04:30:04Z</time>
      </trkpt>
      <trkpt lat="44.28758" lon="-0.22706">
        <ele>108</ele>
        <time>2013-04-29T04:30:07Z</time>
      </trkpt>
      <trkpt lat="44.28743" lon="-0.22675">
        <ele>108</ele>
        <time>2013-04-29T04:30:11Z</time>
      </trkpt>
      <trkpt lat="44.28735" lon="-0.22668">
        <ele>108</ele>
        <time>2013-04-29T04:30:12Z</time>
      </trkpt>
      <trkpt lat="44.28636" lon="-0.22637">
        <ele>107</ele>
        <time>2013-04-29T04:30:26Z</time>
      </trkpt>
      <trkpt lat="44.28578" lon="-0.22605">
        <ele>107</ele>
        <time>2013-04-29T04:30:35Z</time>
      </trkpt>
      <trkpt lat="44.2854" lon="-0.22569">
        <ele>108</ele>
        <time>2013-04-29T04:30:42Z</time>
      </trkpt>
      <trkpt lat="44.28495" lon="-0.22496">
        <ele>107</ele>
        <time>2013-04-29T04:30:52Z</time>
      </trkpt>
      <trkpt lat="44.27997" lon="-0.21461">
        <ele>105</ele>
        <time>2013-04-29T04:32:51Z</time>
      </trkpt>
      <trkpt lat="44.27027" lon="-0.19419">
        <ele>106</ele>
        <time>2013-04-29T04:36:48Z</time>
      </trkpt>
      <trkpt lat="44.27018" lon="-0.19374">
        <ele>106</ele>
        <time>2013-04-29T04:36:52Z</time>
      </trkpt>
      <trkpt lat="44.27017" lon="-0.1931">
        <ele>106</ele>
        <time>2013-04-29T04:36:58Z</time>
      </trkpt>
      <trkpt lat="44.27052" lon="-0.1767">
        <ele>107</ele>
        <time>2013-04-29T04:39:38Z</time>
      </trkpt>
      <trkpt lat="44.27054" lon="-0.17629">
        <ele>105</ele>
        <time>2013-04-29T04:39:42Z</time>
      </trkpt>
      <trkpt lat="44.27061" lon="-0.17597">
        <ele>104</ele>
        <time>2013-04-29T04:39:45Z</time>
      </trkpt>
      <trkpt lat="44.27083" lon="-0.17555">
        <ele>102</ele>
        <time>2013-04-29T04:39:50Z</time>
      </trkpt>
      <trkpt lat="44.27094" lon="-0.17543">
        <ele>102</ele>
        <time>2013-04-29T04:39:52Z</time>
      </trkpt>
      <trkpt lat="44.27371" lon="-0.1737">
        <ele>103</ele>
        <time>2013-04-29T04:40:34Z</time>
      </trkpt>
      <trkpt lat="44.27392" lon="-0.1735">
        <ele>103</ele>
        <time>2013-04-29T04:40:39Z</time>
      </trkpt>
      <trkpt lat="44.27413" lon="-0.17319">
        <ele>103</ele>
        <time>2013-04-29T04:40:43Z</time>
      </trkpt>
      <trkpt lat="44.27525" lon="-0.16916">
        <ele>107</ele>
        <time>2013-04-29T04:41:33Z</time>
      </trkpt>
      <trkpt lat="44.27576" lon="-0.16777">
        <ele>110</ele>
        <time>2013-04-29T04:41:55Z</time>
      </trkpt>
      <trkpt lat="44.28034" lon="-0.15616">
        <ele>111</ele>
        <time>2013-04-29T04:44:04Z</time>
      </trkpt>
      <trkpt lat="44.28692" lon="-0.13915">
        <ele>99</ele>
        <time>2013-04-29T04:47:09Z</time>
      </trkpt>
      <trkpt lat="44.28729" lon="-0.1384">
        <ele>97</ele>
        <time>2013-04-29T04:47:18Z</time>
      </trkpt>
      <trkpt lat="44.28889" lon="-0.13644">
        <ele>93</ele>
        <time>2013-04-29T04:47:46Z</time>
      </trkpt>
      <trkpt lat="44.28919" lon="-0.13596">
        <ele>93</ele>
        <time>2013-04-29T04:47:55Z</time>
      </trkpt>
      <trkpt lat="44.2897" lon="-0.13472">
        <ele>96</ele>
        <time>2013-04-29T04:48:13Z</time>
      </trkpt>
      <trkpt lat="44.2914" lon="-0.13017">
        <ele>106</ele>
        <time>2013-04-29T04:49:26Z</time>
      </trkpt>
      <trkpt lat="44.29158" lon="-0.12974">
        <ele>105</ele>
        <time>2013-04-29T04:49:31Z</time>
      </trkpt>
      <trkpt lat="44.29177" lon="-0.12946">
        <ele>105</ele>
        <time>2013-04-29T04:49:35Z</time>
      </trkpt>
      <trkpt lat="44.29619" lon="-0.12553">
        <ele>105</ele>
        <time>2013-04-29T04:50:45Z</time>
      </trkpt>
      <trkpt lat="44.29864" lon="-0.12358">
        <ele>109</ele>
        <time>2013-04-29T04:51:32Z</time>
      </trkpt>
      <trkpt lat="44.3021" lon="-0.12062">
        <ele>120</ele>
        <time>2013-04-29T04:52:53Z</time>
      </trkpt>
      <trkpt lat="44.30484" lon="-0.11752">
        <ele>116</ele>
        <time>2013-04-29T04:53:40Z</time>
      </trkpt>
      <trkpt lat="44.30527" lon="-0.11714">
        <ele>116</ele>
        <time>2013-04-29T04:53:48Z</time>
      </trkpt>
      <trkpt lat="44.30912" lon="-0.1149">
        <ele>123</ele>
        <time>2013-04-29T04:54:59Z</time>
      </trkpt>
      <trkpt lat="44.31155" lon="-0.11341">
        <ele>132</ele>
        <time>2013-04-29T04:55:56Z</time>
      </trkpt>
      <trkpt lat="44.31573" lon="-0.11101">
        <ele>134</ele>
        <time>2013-04-29T04:57:01Z</time>
      </trkpt>
      <trkpt lat="44.31625" lon="-0.1109">
        <ele>133</ele>
        <time>2013-04-29T04:57:08Z</time>
      </trkpt>
      <trkpt lat="44.32373" lon="-0.11331">
        <ele>133</ele>
        <time>2013-04-29T04:58:51Z</time>
      </trkpt>
      <trkpt lat="44.3241" lon="-0.11323">
        <ele>133</ele>
        <time>2013-04-29T04:58:56Z</time>
      </trkpt>
      <trkpt lat="44.32808" lon="-0.11182">
        <ele>134</ele>
        <time>2013-04-29T04:59:53Z</time>
      </trkpt>
      <trkpt lat="44.33055" lon="-0.1109">
        <ele>136</ele>
        <time>2013-04-29T05:00:32Z</time>
      </trkpt>
      <trkpt lat="44.33504" lon="-0.10912">
        <ele>135</ele>
        <time>2013-04-29T05:01:34Z</time>
      </trkpt>
      <trkpt lat="44.3388" lon="-0.10772">
        <ele>140</ele>
        <time>2013-04-29T05:02:38Z</time>
      </trkpt>
      <trkpt lat="44.33917" lon="-0.1075">
        <ele>140</ele>
        <time>2013-04-29T05:02:44Z</time>
      </trkpt>
      <trkpt lat="44.34196" lon="-0.10467">
        <ele>140</ele>
        <time>2013-04-29T05:03:30Z</time>
      </trkpt>
      <trkpt lat="44.34258" lon="-0.10411">
        <ele>140</ele>
        <time>2013-04-29T05:03:41Z</time>
      </trkpt>
      <trkpt lat="44.3491" lon="-0.09745">
        <ele>146</ele>
        <time>2013-04-29T05:05:42Z</time>
      </trkpt>
      <trkpt lat="44.35246" lon="-0.09182">
        <ele>145</ele>
        <time>2013-04-29T05:06:52Z</time>
      </trkpt>
      <trkpt lat="44.35647" lon="-0.08498">
        <ele>140</ele>
        <time>2013-04-29T05:08:16Z</time>
      </trkpt>
      <trkpt lat="44.35722" lon="-0.08378">
        <ele>134</ele>
        <time>2013-04-29T05:08:32Z</time>
      </trkpt>
      <trkpt lat="44.3576" lon="-0.08337">
        <ele>131</ele>
        <time>2013-04-29T05:08:38Z</time>
      </trkpt>
      <trkpt lat="44.35999" lon="-0.08129">
        <ele>117</ele>
        <time>2013-04-29T05:09:16Z</time>
      </trkpt>
      <trkpt lat="44.36051" lon="-0.08073">
        <ele>117</ele>
        <time>2013-04-29T05:09:25Z</time>
      </trkpt>
      <trkpt lat="44.36975" lon="-0.0682">
        <ele>125</ele>
        <time>2013-04-29T05:12:35Z</time>
      </trkpt>
      <trkpt lat="44.37555" lon="-0.06043">
        <ele>124</ele>
        <time>2013-04-29T05:14:23Z</time>
      </trkpt>
      <trkpt lat="44.37729" lon="-0.05794">
        <ele>129</ele>
        <time>2013-04-29T05:15:08Z</time>
      </trkpt>
      <trkpt lat="44.37853" lon="-0.05634">
        <ele>127</ele>
        <time>2013-04-29T05:15:31Z</time>
      </trkpt>
      <trkpt lat="44.38134" lon="-0.05242">
        <ele>126</ele>
        <time>2013-04-29T05:16:24Z</time>
      </trkpt>
      <trkpt lat="44.38335" lon="-0.04977">
        <ele>130</ele>
        <time>2013-04-29T05:17:10Z</time>
      </trkpt>
      <trkpt lat="44.38521" lon="-0.04715">
        <ele>137</ele>
        <time>2013-04-29T05:18:02Z</time>
      </trkpt>
      <trkpt lat="44.38629" lon="-0.04584">
        <ele>142</ele>
        <time>2013-04-29T05:18:33Z</time>
      </trkpt>
      <trkpt lat="44.38667" lon="-0.04516">
        <ele>143</ele>
        <time>2013-04-29T05:18:44Z</time>
      </trkpt>
      <trkpt lat="44.38726" lon="-0.04427">
        <ele>145</ele>
        <time>2013-04-29T05:19:00Z</time>
      </trkpt>
      <trkpt lat="44.38727" lon="-0.04416">
        <ele>145</ele>
        <time>2013-04-29T05:19:02Z</time>
      </trkpt>
      <trkpt lat="44.3869" lon="-0.04365">
        <ele>146</ele>
        <time>2013-04-29T05:19:11Z</time>
      </trkpt>
    </trkseg>
  </trk>
</gpx>